createdAt,value
2022-08-05T00:00:16.047Z,1.48
2022-08-05T00:02:49.103Z,2.08
2022-08-05T00:06:03.069Z,2.47
2022-08-05T00:08:32.956Z,2.00
2022-08-05T00:10:54.606Z,2.70
2022-08-05T00:13:39.591Z,2.25
2022-08-05T00:16:09.325Z,2.08
2022-08-05T00:18:38.330Z,2.35
2022-08-05T00:21:06.893Z,2.42
2022-08-05T00:23:45.850Z,2.28
2022-08-05T00:26:14.992Z,1.80
2022-08-05T00:28:46.351Z,2.20
2022-08-05T00:31:13.987Z,2.40
2022-08-05T00:34:53.694Z,2.70
2022-08-05T00:37:13.204Z,2.05
2022-08-05T00:39:22.732Z,2.25
2022-08-05T00:41:55.655Z,2.67
2022-08-05T00:44:30.320Z,2.53
2022-08-05T00:47:02.043Z,2.53
2022-08-05T00:49:32.335Z,3.22
2022-08-05T00:52:00.305Z,2.10
2022-08-05T00:54:30.206Z,2.50
2022-08-05T00:56:57.642Z,2.50
2022-08-05T00:59:24.920Z,2.60
2022-08-05T01:01:52.428Z,2.60
2022-08-05T01:04:34.915Z,2.28
2022-08-05T01:07:02.161Z,1.73
2022-08-05T01:09:33.969Z,2.13
2022-08-05T01:12:09.304Z,2.20
2022-08-05T01:14:48.330Z,2.50
2022-08-05T01:17:19.132Z,2.35
2022-08-05T01:20:01.119Z,1.90
2022-08-05T01:22:34.052Z,1.98
2022-08-05T01:25:13.743Z,2.47
2022-08-05T01:28:00.699Z,2.42
2022-08-05T01:30:34.017Z,2.90
2022-08-05T01:33:03.935Z,1.95
2022-08-05T01:35:50.864Z,1.90
2022-08-05T01:38:27.253Z,1.98
2022-08-05T01:40:58.164Z,2.03
2022-08-05T01:43:28.083Z,1.70
2022-08-05T01:45:56.473Z,2.80
2022-08-05T01:48:24.644Z,2.00
2022-08-05T01:50:52.594Z,2.08
2022-08-05T01:53:56.897Z,1.88
2022-08-05T01:56:09.605Z,2.17
2022-08-05T01:58:45.067Z,2.15
2022-08-05T02:01:23.323Z,2.47
2022-08-05T02:03:54.084Z,1.98
2022-08-05T02:06:37.452Z,2.47
2022-08-05T02:09:05.934Z,2.30
2022-08-05T02:11:41.993Z,2.33
2022-08-05T02:14:12.974Z,2.47
2022-08-05T02:16:45.216Z,2.20
2022-08-05T02:19:14.574Z,2.03
2022-08-05T02:21:49.152Z,2.30
2022-08-05T02:24:18.715Z,1.50
2022-08-05T02:26:53.830Z,2.00
2022-08-05T02:29:58.117Z,2.15
2022-08-05T02:32:31.418Z,1.73
2022-08-05T02:35:09.613Z,2.25
2022-08-05T02:37:42.278Z,2.00
2022-08-05T02:40:15.097Z,2.10
2022-08-05T02:42:43.108Z,1.33
2022-08-05T02:45:24.222Z,1.48
2022-08-05T02:48:07.305Z,1.98
2022-08-05T02:50:43.643Z,2.05
2022-08-05T02:53:15.940Z,2.63
2022-08-05T02:55:54.454Z,2.15
2022-08-05T02:58:22.795Z,2.05
2022-08-05T03:00:55.972Z,1.83
2022-08-05T03:03:23.878Z,1.70
2022-08-05T03:06:55.753Z,1.75
2022-08-05T03:08:42.774Z,1.42
2022-08-05T03:11:55.218Z,1.58
2022-08-05T03:14:08.173Z,1.70
2022-08-05T03:16:37.304Z,1.60
2022-08-05T03:19:16.941Z,1.58
2022-08-05T03:21:48.929Z,1.70
2022-08-05T03:24:17.668Z,1.40
2022-08-05T03:26:54.876Z,1.60
2022-08-05T03:29:22.532Z,1.60
2022-08-05T03:31:55.677Z,1.98
2022-08-05T03:34:24.475Z,1.52
2022-08-05T03:36:52.343Z,1.42
2022-08-05T03:39:20.065Z,2.45
2022-08-05T03:41:56.119Z,1.60
2022-08-05T03:44:23.740Z,1.10
2022-08-05T03:46:52.523Z,1.77
2022-08-05T03:49:19.783Z,1.50
2022-08-05T03:52:37.445Z,1.58
2022-08-05T03:55:52.581Z,1.98
2022-08-05T03:57:41.921Z,1.45
2022-08-05T04:00:11.317Z,1.67
2022-08-05T04:02:57.975Z,1.70
2022-08-05T04:05:28.075Z,2.15
2022-08-05T04:08:02.243Z,1.30
2022-08-05T04:10:37.716Z,1.67
2022-08-05T04:13:06.110Z,1.80
2022-08-05T04:15:36.244Z,1.55
2022-08-05T04:18:07.157Z,1.50
2022-08-05T04:20:42.812Z,1.45
2022-08-05T04:23:12.667Z,1.27
2022-08-05T04:25:57.652Z,1.10
2022-08-05T04:28:30.653Z,1.52
2022-08-05T04:30:58.351Z,1.40
2022-08-05T04:34:19.046Z,1.40
2022-08-05T04:36:45.518Z,1.35
2022-08-05T04:39:05.707Z,1.50
2022-08-05T04:41:37.687Z,1.63
2022-08-05T04:44:09.655Z,1.38
2022-08-05T04:46:37.374Z,1.58
2022-08-05T04:49:14.409Z,1.30
2022-08-05T04:51:42.398Z,1.20
2022-08-05T04:54:12.206Z,1.40
2022-08-05T04:56:39.637Z,1.27
2022-08-05T04:59:23.957Z,1.58
2022-08-05T05:02:37.701Z,0.98
2022-08-05T05:04:47.897Z,1.30
2022-08-05T05:07:17.399Z,1.23
2022-08-05T05:15:57.848Z,1.40
2022-08-05T05:18:10.698Z,1.50
2022-08-05T05:20:39.265Z,1.43
2022-08-05T05:23:06.944Z,1.50
2022-08-05T05:29:14.662Z,1.30
2022-08-05T05:31:42.324Z,1.33
2022-08-05T05:34:13.800Z,1.65
2022-08-05T05:36:44.213Z,1.30
2022-08-05T05:39:14.496Z,1.55
2022-08-05T05:41:46.434Z,1.08
2022-08-05T05:47:04.098Z,1.30
2022-08-05T05:49:31.969Z,1.23
2022-08-05T05:52:05.810Z,1.20
2022-08-05T05:54:50.594Z,1.33
2022-08-05T05:57:19.049Z,0.90
2022-08-05T06:00:01.872Z,1.05
2022-08-05T06:02:39.295Z,1.13
2022-08-05T06:05:10.409Z,0.95
2022-08-05T06:08:01.135Z,1.33
2022-08-05T06:10:29.585Z,1.13
2022-08-05T06:13:04.103Z,1.50
2022-08-05T06:16:28.473Z,1.10
2022-08-05T06:18:18.783Z,1.05
2022-08-05T06:20:47.719Z,1.00
2022-08-05T06:23:16.701Z,1.58
2022-08-05T06:26:12.709Z,1.00
2022-08-05T06:28:31.266Z,0.85
2022-08-05T06:30:58.590Z,1.10
2022-08-05T06:33:33.270Z,0.70
2022-08-05T06:36:13.128Z,1.02
2022-08-05T06:38:47.023Z,1.25
2022-08-05T06:41:14.528Z,1.00
2022-08-05T06:43:58.654Z,0.95
2022-08-05T06:46:44.501Z,0.95
2022-08-05T06:49:12.141Z,0.90
2022-08-05T06:51:40.891Z,1.02
2022-08-05T06:54:09.620Z,1.23
2022-08-05T06:56:39.532Z,1.00
2022-08-05T06:59:09.603Z,0.80
2022-08-05T07:01:40.511Z,0.90
2022-08-05T07:04:08.827Z,0.98
2022-08-05T07:06:36.128Z,0.77
2022-08-05T07:09:04.672Z,1.10
2022-08-05T07:11:37.044Z,0.90
2022-08-05T07:14:07.049Z,0.75
2022-08-05T07:17:57.299Z,0.80
2022-08-05T07:22:17.566Z,0.80
2022-08-05T07:24:53.602Z,0.80
2022-08-05T07:27:22.476Z,0.70
2022-08-05T08:01:32.967Z,0.85
2022-08-05T08:04:02.643Z,1.35
2022-08-05T08:06:31.512Z,1.15
2022-08-05T08:08:58.736Z,1.50
2022-08-05T08:11:27.681Z,1.10
2022-08-05T08:14:17.524Z,0.85
2022-08-05T08:16:51.044Z,1.00
2022-08-05T08:20:21.858Z,1.52
2022-08-05T08:22:09.062Z,1.80
2022-08-05T08:24:51.509Z,1.23
2022-08-05T08:27:19.352Z,1.00
2022-08-05T08:30:05.728Z,1.00
2022-08-05T08:32:35.931Z,1.05
2022-08-05T08:35:13.631Z,0.82
2022-08-05T08:37:45.163Z,1.00
2022-08-05T08:40:12.759Z,0.93
2022-08-05T08:42:50.586Z,1.00
2022-08-05T08:45:27.007Z,0.70
2022-08-05T08:48:12.725Z,0.90
2022-08-05T08:51:03.437Z,1.20
2022-08-05T08:53:36.554Z,0.70
2022-08-05T08:56:05.760Z,0.85
2022-08-05T08:58:43.347Z,0.80
2022-08-05T09:01:16.413Z,1.35
2022-08-05T09:03:46.779Z,0.93
2022-08-05T09:06:18.656Z,0.90
2022-08-05T09:08:48.615Z,1.17
2022-08-05T09:11:15.931Z,0.73
2022-08-05T09:14:09.089Z,0.80
2022-08-05T09:16:30.642Z,0.95
2022-08-05T09:19:00.758Z,0.98
2022-08-05T09:22:18.479Z,1.05
2022-08-05T09:24:27.604Z,0.98
2022-08-05T09:26:59.420Z,1.20
2022-08-05T09:29:47.656Z,1.25
2022-08-05T09:32:51.067Z,0.75
2022-08-05T09:35:10.344Z,1.10
2022-08-05T09:38:17.147Z,1.27
2022-08-05T09:40:32.140Z,1.23
2022-08-05T09:43:00.445Z,0.70
2022-08-05T09:46:06.996Z,0.75
2022-08-05T09:48:34.029Z,1.30
2022-08-05T09:51:03.825Z,1.48
2022-08-05T09:53:53.461Z,0.80
2022-08-05T09:56:26.323Z,0.80
2022-08-05T09:58:57.250Z,0.88
2022-08-05T10:01:32.275Z,0.90
2022-08-05T10:04:01.859Z,1.13
2022-08-05T10:06:32.551Z,0.73
2022-08-05T10:09:27.824Z,0.80
2022-08-05T10:12:30.306Z,0.85
2022-08-05T10:14:56.005Z,1.10
2022-08-05T10:17:37.408Z,1.10
2022-08-05T10:20:10.847Z,1.00
2022-08-05T10:22:42.811Z,0.88
2022-08-05T10:25:10.655Z,0.85
2022-08-05T10:28:12.887Z,0.80
2022-08-05T10:31:20.751Z,0.73
2022-08-05T10:33:16.614Z,0.75
2022-08-05T10:35:44.981Z,0.90
2022-08-05T10:38:16.295Z,0.82
2022-08-05T10:40:57.967Z,1.02
2022-08-05T10:43:36.378Z,1.00
2022-08-05T10:46:06.738Z,0.90
2022-08-05T10:48:52.544Z,0.85
2022-08-05T10:51:29.291Z,0.95
2022-08-05T10:54:01.031Z,0.90
2022-08-05T10:56:30.444Z,1.10
2022-08-05T10:59:12.765Z,0.70
2022-08-05T11:02:06.823Z,0.80
2022-08-05T11:04:43.491Z,0.85
2022-08-05T11:07:12.339Z,1.00
2022-08-05T11:09:46.880Z,0.82
2022-08-05T11:12:32.896Z,1.05
2022-08-05T11:15:19.696Z,0.70
2022-08-05T11:17:59.101Z,1.02
2022-08-05T11:20:49.251Z,1.23
2022-08-05T11:24:04.076Z,0.98
2022-08-05T11:26:33.435Z,1.02
2022-08-05T11:29:06.619Z,0.98
2022-08-05T11:31:58.871Z,0.93
2022-08-05T11:34:38.311Z,0.90
2022-08-05T11:37:06.162Z,0.73
2022-08-05T11:40:00.828Z,0.90
2022-08-05T11:42:38.016Z,0.93
2022-08-05T11:45:14.552Z,0.70
2022-08-05T11:47:54.731Z,1.50
2022-08-05T11:50:22.559Z,1.00
2022-08-05T11:52:53.159Z,0.70
2022-08-05T11:55:31.793Z,0.70
2022-08-05T11:58:09.905Z,0.75
2022-08-05T12:00:41.136Z,0.77
2022-08-05T12:03:28.610Z,0.60
2022-08-05T12:05:59.596Z,0.75
2022-08-05T12:08:27.535Z,0.60
2022-08-05T12:10:58.870Z,0.60
2022-08-05T12:13:47.914Z,0.90
2022-08-05T12:16:18.636Z,0.85
2022-08-05T12:18:49.489Z,0.70
2022-08-05T12:21:21.735Z,0.90
2022-08-05T12:24:00.185Z,0.90
2022-08-05T12:26:32.969Z,0.80
2022-08-05T12:29:03.084Z,0.88
2022-08-05T12:31:33.051Z,0.60
2022-08-05T12:34:20.587Z,1.02
2022-08-05T12:36:49.100Z,0.70
2022-08-05T12:39:16.411Z,0.70
2022-08-05T12:41:44.126Z,0.70
2022-08-05T12:44:14.401Z,1.10
2022-08-05T12:46:52.905Z,0.73
2022-08-05T12:49:20.218Z,0.90
2022-08-05T12:52:14.493Z,1.00
2022-08-05T12:54:41.535Z,0.70
2022-08-05T12:57:10.208Z,0.60
2022-08-05T13:01:57.717Z,0.80
2022-08-05T13:02:36.605Z,0.80
2022-08-05T13:05:06.663Z,0.93
2022-08-05T13:08:00.287Z,0.80
2022-08-05T13:10:21.313Z,0.60
2022-08-05T13:12:51.187Z,0.85
2022-08-05T13:15:41.294Z,0.82
2022-08-05T13:18:19.786Z,1.15
2022-08-05T13:20:49.118Z,1.00
2022-08-05T13:23:22.056Z,0.98
2022-08-05T13:25:52.664Z,0.93
2022-08-05T13:28:26.386Z,1.10
2022-08-05T13:30:54.961Z,0.90
2022-08-05T13:34:24.190Z,1.20
2022-08-05T13:36:09.901Z,1.00
2022-08-05T13:38:41.937Z,1.15
2022-08-05T13:41:10.493Z,1.10
2022-08-05T13:43:44.164Z,1.10
2022-08-05T13:47:01.721Z,0.90
2022-08-05T13:49:11.773Z,1.80
2022-08-05T13:51:40.866Z,1.13
2022-08-05T13:54:12.859Z,1.17
2022-08-05T13:56:45.381Z,1.00
2022-08-05T13:59:19.501Z,0.80
2022-08-05T14:01:57.874Z,1.42
2022-08-05T14:04:27.015Z,0.90
2022-08-05T14:07:12.022Z,1.13
2022-08-05T14:09:46.411Z,1.08
2022-08-05T14:12:32.835Z,1.08
2022-08-05T14:15:00.366Z,1.33
2022-08-05T14:17:29.219Z,1.02
2022-08-05T14:20:00.921Z,1.10
2022-08-05T14:22:34.410Z,1.08
2022-08-05T14:25:01.984Z,1.00
2022-08-05T14:27:40.298Z,1.30
2022-08-05T14:30:20.430Z,1.05
2022-08-05T14:32:49.669Z,1.35
2022-08-05T14:35:20.632Z,0.80
2022-08-05T14:38:32.655Z,1.75
2022-08-05T14:41:06.431Z,0.95
2022-08-05T14:44:02.597Z,1.10
2022-08-05T14:46:22.246Z,1.10
2022-08-05T14:48:51.065Z,1.13
2022-08-05T14:51:21.629Z,1.60
2022-08-05T14:54:06.939Z,1.10
2022-08-05T14:56:38.031Z,2.05
2022-08-05T14:59:11.471Z,1.42
2022-08-05T15:01:48.072Z,1.30
2022-08-05T15:04:20.753Z,1.00
2022-08-05T15:06:50.039Z,1.20
2022-08-05T15:09:17.973Z,1.70
2022-08-05T15:12:24.971Z,1.05
2022-08-05T15:14:55.035Z,1.10
2022-08-05T15:17:45.553Z,1.30
2022-08-05T15:20:18.335Z,1.33
2022-08-05T15:22:54.340Z,1.35
2022-08-05T15:25:23.657Z,0.98
2022-08-05T15:28:14.286Z,2.40
2022-08-05T15:30:42.312Z,1.35
2022-08-05T15:33:10.782Z,1.40
2022-08-05T15:35:45.245Z,1.50
2022-08-05T15:38:36.036Z,1.30
2022-08-05T15:41:23.121Z,1.48
2022-08-05T15:43:47.630Z,1.98
2022-08-05T15:46:15.280Z,1.90
2022-08-05T15:48:52.786Z,1.25
2022-08-05T15:52:13.305Z,1.75
2022-08-05T15:54:15.715Z,1.67
2022-08-05T15:56:43.567Z,1.70
2022-08-05T15:59:21.806Z,1.10
2022-08-05T16:01:52.257Z,1.70
2022-08-05T16:04:20.708Z,1.70
2022-08-05T16:06:55.721Z,1.15
2022-08-05T16:09:23.304Z,1.40
2022-08-05T16:11:53.760Z,1.63
2022-08-05T16:14:21.439Z,1.30
2022-08-05T16:16:49.918Z,1.30
2022-08-05T16:19:18.854Z,1.48
2022-08-05T16:21:59.370Z,1.42
2022-08-05T16:24:41.007Z,1.30
2022-08-05T16:27:47.218Z,1.30
2022-08-05T16:30:07.936Z,1.10
2022-08-05T16:32:50.959Z,0.85
2022-08-05T16:35:18.223Z,1.10
2022-08-05T16:38:15.554Z,1.50
2022-08-05T16:40:51.602Z,1.10
2022-08-05T16:43:23.490Z,1.65
2022-08-05T16:46:03.965Z,1.25
2022-08-05T16:48:39.122Z,1.15
2022-08-05T16:51:42.580Z,1.52
2022-08-05T16:54:31.897Z,1.30
2022-08-05T16:57:01.572Z,1.60
2022-08-05T16:59:30.663Z,1.25
2022-08-05T17:01:58.257Z,1.85
2022-08-05T17:04:27.317Z,1.17
2022-08-05T17:06:55.762Z,0.90
2022-08-05T17:12:13.246Z,1.13
2022-08-05T17:14:43.453Z,1.65
2022-08-05T17:17:15.152Z,1.70
2022-08-05T17:19:43.315Z,1.48
2022-08-05T17:22:12.796Z,1.83
2022-08-05T17:24:56.930Z,1.42
2022-08-05T17:27:33.712Z,1.52
2022-08-05T17:30:18.713Z,1.77
2022-08-05T17:32:46.625Z,1.60
2022-08-05T17:35:15.586Z,1.63
2022-08-05T17:37:48.511Z,1.38
2022-08-05T17:40:17.228Z,1.80
2022-08-05T17:42:51.183Z,1.10
2022-08-05T17:45:21.092Z,1.20
2022-08-05T17:47:54.027Z,1.10
2022-08-05T17:50:27.649Z,2.20
2022-08-05T17:52:55.234Z,1.20
2022-08-05T17:55:22.528Z,1.60
2022-08-05T17:57:56.317Z,1.55
2022-08-05T18:00:29.459Z,1.60
2022-08-05T18:02:57.228Z,1.33
2022-08-05T18:05:28.272Z,1.48
2022-08-05T18:08:02.577Z,1.40
2022-08-05T18:10:33.515Z,1.35
2022-08-05T18:13:07.614Z,1.48
2022-08-05T18:15:39.670Z,1.58
2022-08-05T18:18:11.372Z,1.27
2022-08-05T18:20:39.144Z,1.10
2022-08-05T18:23:09.416Z,0.85
2022-08-05T18:25:45.064Z,1.20
2022-08-05T18:28:16.590Z,1.60
2022-08-05T18:30:44.302Z,1.15
2022-08-05T18:33:13.905Z,1.30
2022-08-05T18:36:00.937Z,1.70
2022-08-05T18:38:28.676Z,1.23
2022-08-05T18:41:55.808Z,1.13
2022-08-05T18:43:48.668Z,1.00
2022-08-05T18:46:20.277Z,1.15
2022-08-05T18:48:48.148Z,1.60
2022-08-05T18:52:04.584Z,1.67
2022-08-05T18:54:07.094Z,1.70
2022-08-05T18:56:36.486Z,1.45
2022-08-05T19:12:33.840Z,1.40
2022-08-05T19:15:02.724Z,1.73
2022-08-05T19:17:33.795Z,1.33
2022-08-05T19:20:18.470Z,1.60
2022-08-05T19:22:48.146Z,1.40
2022-08-05T19:25:21.641Z,1.42
2022-08-05T19:27:58.627Z,1.30
2022-08-05T19:30:28.111Z,1.35
2022-08-05T19:32:55.336Z,1.35
2022-08-05T19:35:24.507Z,1.60
2022-08-05T19:38:06.299Z,1.30
2022-08-05T19:40:35.331Z,1.63
2022-08-05T19:43:05.261Z,1.45
2022-08-05T19:45:36.890Z,1.50
2022-08-05T19:48:05.391Z,1.83
2022-08-05T19:50:33.243Z,1.42
2022-08-05T19:53:09.462Z,0.98
2022-08-05T19:56:15.398Z,1.52
2022-08-05T19:58:29.497Z,1.10
2022-08-05T20:00:57.199Z,0.98
2022-08-05T20:03:26.096Z,1.15
2022-08-05T20:05:53.431Z,1.58
2022-08-05T20:08:24.364Z,1.05
2022-08-05T20:10:52.490Z,1.23
2022-08-05T20:13:54.696Z,0.98
2022-08-05T20:16:08.540Z,1.50
2022-08-05T20:18:36.605Z,1.30
2022-08-05T20:21:05.147Z,1.80
2022-08-05T20:23:40.342Z,1.33
2022-08-05T20:26:19.470Z,1.40
2022-08-05T20:28:47.103Z,1.63
2022-08-05T20:31:16.687Z,1.70
2022-08-05T20:33:44.343Z,1.50
2022-08-05T20:36:12.175Z,1.42
2022-08-05T20:38:53.447Z,1.55
2022-08-05T20:41:24.030Z,1.40
2022-08-05T20:43:58.989Z,1.33
2022-08-05T20:46:31.393Z,1.35
2022-08-05T20:48:59.186Z,1.63
2022-08-05T20:51:26.650Z,1.63
2022-08-05T20:53:56.452Z,1.73
2022-08-05T20:56:28.754Z,1.63
2022-08-05T20:59:04.269Z,2.22
2022-08-05T21:01:47.260Z,1.70
2022-08-05T21:04:15.798Z,1.83
2022-08-05T21:06:45.616Z,1.80
2022-08-05T21:09:14.209Z,1.15
2022-08-05T21:12:09.031Z,1.30
2022-08-05T21:14:29.305Z,1.58
2022-08-05T21:17:05.240Z,1.55
2022-08-05T21:19:47.139Z,1.20
2022-08-05T21:22:18.457Z,1.20
2022-08-05T21:24:52.042Z,1.63
2022-08-05T21:27:20.534Z,1.30
2022-08-05T21:29:53.990Z,1.85
2022-08-05T21:32:24.412Z,1.20
2022-08-05T21:34:56.020Z,2.38
2022-08-05T21:37:41.388Z,1.38
2022-08-05T21:40:13.667Z,1.30
2022-08-05T21:42:45.262Z,1.10
2022-08-05T21:45:13.465Z,1.60
2022-08-05T21:47:56.873Z,1.00
2022-08-05T21:50:25.192Z,1.35
2022-08-05T21:52:52.651Z,1.60
2022-08-05T21:55:43.128Z,1.85
2022-08-05T21:58:20.239Z,1.63
2022-08-05T22:00:52.236Z,1.33
2022-08-05T22:03:35.513Z,1.27
2022-08-05T22:06:08.547Z,1.45
2022-08-05T22:08:35.868Z,1.20
2022-08-05T22:11:35.126Z,1.33
2022-08-05T22:14:18.209Z,1.60
2022-08-05T22:16:52.477Z,1.17
2022-08-05T22:20:02.225Z,1.15
2022-08-05T22:22:31.273Z,1.60
2022-08-05T22:26:09.240Z,1.63
2022-08-05T22:28:12.214Z,1.17
2022-08-05T22:30:44.091Z,0.93
2022-08-05T22:33:57.107Z,1.52
2022-08-05T22:36:14.487Z,1.27
2022-08-05T22:38:42.550Z,1.73
2022-08-05T22:41:10.329Z,1.77
2022-08-05T22:43:38.179Z,1.48
2022-08-05T22:46:13.171Z,1.88
2022-08-05T22:48:41.250Z,1.23
2022-08-05T22:51:08.814Z,1.77
2022-08-05T22:53:54.939Z,1.40
2022-08-05T22:56:30.397Z,1.75
2022-08-05T22:58:58.416Z,2.20
2022-08-05T23:02:04.688Z,1.70
2022-08-05T23:04:14.892Z,1.90
2022-08-05T23:06:42.577Z,1.73
2022-08-05T23:09:24.588Z,1.67
2022-08-05T23:11:58.651Z,1.67
2022-08-05T23:14:32.193Z,2.10
2022-08-05T23:17:00.086Z,1.70
2022-08-05T23:19:27.924Z,1.60
2022-08-05T23:21:55.601Z,1.73
2022-08-05T23:24:24.211Z,1.63
2022-08-05T23:26:51.472Z,1.60
2022-08-05T23:29:19.454Z,1.83
2022-08-05T23:31:46.755Z,2.17
2022-08-05T23:34:24.605Z,2.45
2022-08-05T23:36:52.936Z,2.08
2022-08-05T23:39:32.039Z,1.67
2022-08-05T23:42:14.545Z,1.80
2022-08-05T23:44:42.497Z,1.73
2022-08-05T23:47:15.153Z,1.77
2022-08-05T23:49:43.228Z,1.67
2022-08-05T23:52:13.212Z,1.83
2022-08-05T23:54:44.996Z,2.17
2022-08-05T23:57:12.206Z,1.80
